createdAt,value
2022-10-15T00:02:49.197Z,12.93
2022-10-15T00:07:50.904Z,12.88
2022-10-15T00:12:52.520Z,12.92
2022-10-15T00:17:54.157Z,12.76
2022-10-15T00:22:55.701Z,12.92
2022-10-15T00:27:57.531Z,12.97
2022-10-15T00:33:00.773Z,12.88
2022-10-15T00:38:02.788Z,12.74
2022-10-15T00:43:09.346Z,12.59
2022-10-15T00:48:10.993Z,12.72
2022-10-15T00:53:12.659Z,12.74
2022-10-15T00:58:17.833Z,12.59
2022-10-15T01:03:20.215Z,12.67
2022-10-15T01:08:22.090Z,12.73
2022-10-15T01:13:37.915Z,12.59
2022-10-15T01:18:51.209Z,12.53
2022-10-15T01:24:14.115Z,12.43
2022-10-15T01:29:18.882Z,12.42
2022-10-15T01:34:27.806Z,12.51
2022-10-15T01:39:35.954Z,12.44
2022-10-15T01:44:44.568Z,12.46
2022-10-15T01:50:01.789Z,12.68
2022-10-15T01:55:08.968Z,12.75
2022-10-15T02:00:12.650Z,12.53
2022-10-15T02:05:20.606Z,12.53
2022-10-15T02:10:53.550Z,12.57
2022-10-15T02:16:04.277Z,12.65
2022-10-15T02:21:14.564Z,12.53
2022-10-15T02:26:17.335Z,12.58
2022-10-15T02:31:20.771Z,12.65
2022-10-15T02:36:22.604Z,12.85
2022-10-15T02:41:27.552Z,12.67
2022-10-15T02:46:29.430Z,12.70
2022-10-15T02:51:35.342Z,12.60
2022-10-15T02:56:39.333Z,12.58
2022-10-15T03:01:41.538Z,12.48
2022-10-15T03:06:44.269Z,12.53
2022-10-15T03:11:46.909Z,12.61
2022-10-15T03:16:48.772Z,12.53
2022-10-15T03:21:51.618Z,12.76
2022-10-15T03:26:53.921Z,12.66
2022-10-15T03:31:55.646Z,12.45
2022-10-15T03:36:57.511Z,12.53
2022-10-15T03:41:59.519Z,12.52
2022-10-15T03:47:08.780Z,12.51
2022-10-15T03:52:18.714Z,12.41
2022-10-15T03:57:22.073Z,12.75
2022-10-15T04:02:32.499Z,12.67
2022-10-15T04:07:34.597Z,12.57
2022-10-15T04:12:36.332Z,12.62
2022-10-15T04:17:38.400Z,12.60
2022-10-15T04:22:39.979Z,12.67
2022-10-15T04:27:43.085Z,12.65
2022-10-15T04:32:51.899Z,12.67
2022-10-15T04:37:53.629Z,12.59
2022-10-15T04:42:55.237Z,12.73
2022-10-15T04:47:57.196Z,12.64
2022-10-15T04:52:59.863Z,12.54
2022-10-15T04:58:03.312Z,12.49
2022-10-15T05:03:06.570Z,12.57
2022-10-15T05:08:30.045Z,12.42
2022-10-15T05:13:44.421Z,12.44
2022-10-15T05:18:48.507Z,12.50
2022-10-15T05:23:50.674Z,12.43
2022-10-15T05:29:12.254Z,12.50
2022-10-15T05:34:13.917Z,12.47
2022-10-15T05:39:21.756Z,12.35
2022-10-15T05:44:23.333Z,12.48
2022-10-15T05:49:24.890Z,12.30
2022-10-15T05:54:35.653Z,12.38
2022-10-15T05:59:37.257Z,12.52
2022-10-15T06:04:38.870Z,12.45
2022-10-15T06:09:40.493Z,12.45
2022-10-15T06:14:42.074Z,12.53
2022-10-15T06:19:43.646Z,12.51
2022-10-15T06:24:46.176Z,12.53
2022-10-15T06:29:47.792Z,12.60
2022-10-15T06:34:49.357Z,12.68
2022-10-15T06:39:51.315Z,12.72
2022-10-15T06:44:52.848Z,12.87
2022-10-15T06:49:54.403Z,12.88
2022-10-15T06:54:55.930Z,12.96
2022-10-15T06:59:57.480Z,13.01
2022-10-15T07:04:59.031Z,12.99
2022-10-15T07:10:00.659Z,13.12
2022-10-15T07:15:02.232Z,13.11
2022-10-15T07:20:04.210Z,13.24
2022-10-15T07:25:06.002Z,13.12
2022-10-15T07:30:08.867Z,13.43
2022-10-15T07:35:10.482Z,13.66
2022-10-15T07:40:12.382Z,13.83
2022-10-15T07:45:14.308Z,13.96
2022-10-15T07:50:16.265Z,14.24
2022-10-15T07:55:19.345Z,14.38
2022-10-15T08:00:20.964Z,14.31
2022-10-15T08:05:22.619Z,14.48
2022-10-15T08:10:24.187Z,14.16
2022-10-15T08:15:25.726Z,14.33
2022-10-15T08:20:27.265Z,14.62
2022-10-15T08:25:29.102Z,14.79
2022-10-15T08:30:30.632Z,14.79
2022-10-15T08:35:35.376Z,14.93
2022-10-15T08:40:37.224Z,15.03
2022-10-15T08:45:45.141Z,14.94
2022-10-15T08:51:02.583Z,14.97
2022-10-15T08:56:12.212Z,14.91
2022-10-15T09:01:18.591Z,14.96
2022-10-15T09:06:30.730Z,15.00
2022-10-15T09:11:51.465Z,15.06
2022-10-15T09:16:53.077Z,15.19
2022-10-15T09:21:55.463Z,15.41
2022-10-15T09:27:08.789Z,15.43
2022-10-15T09:32:34.100Z,15.55
2022-10-15T09:37:48.684Z,15.54
2022-10-15T09:42:51.941Z,15.74
2022-10-15T09:48:00.117Z,15.92
2022-10-15T09:53:28.231Z,16.15
2022-10-15T09:58:56.824Z,16.47
2022-10-15T10:04:21.383Z,16.62
2022-10-15T10:09:38.786Z,16.49
2022-10-15T10:14:46.963Z,16.70
2022-10-15T10:20:24.654Z,16.32
2022-10-15T10:25:34.337Z,16.03
2022-10-15T10:30:38.722Z,16.43
2022-10-15T10:35:50.593Z,16.42
2022-10-15T10:41:06.841Z,16.61
2022-10-15T10:46:14.786Z,16.52
2022-10-15T10:51:25.057Z,16.60
2022-10-15T10:56:35.522Z,16.83
2022-10-15T11:07:41.473Z,17.12
2022-10-15T11:12:56.484Z,17.20
2022-10-15T11:18:27.003Z,17.21
2022-10-15T11:24:05.568Z,17.23
2022-10-15T11:29:10.865Z,17.21
2022-10-15T11:34:47.169Z,17.47
2022-10-15T11:40:26.230Z,18.03
2022-10-15T11:45:54.005Z,18.23
2022-10-15T11:51:06.388Z,18.23
2022-10-15T11:56:26.704Z,18.50
2022-10-15T12:01:41.951Z,18.80
2022-10-15T12:06:50.122Z,19.16
2022-10-15T12:11:57.582Z,19.37
2022-10-15T12:22:39.342Z,19.00
2022-10-15T12:27:41.581Z,18.83
2022-10-15T12:32:48.848Z,18.82
2022-10-15T12:37:51.152Z,18.64
2022-10-15T12:43:04.049Z,18.61
2022-10-15T12:48:07.930Z,18.68
2022-10-15T12:53:28.723Z,18.55
2022-10-15T12:58:39.904Z,18.49
2022-10-15T13:03:50.690Z,18.84
2022-10-15T13:08:58.819Z,18.82
2022-10-15T13:14:03.585Z,18.85
2022-10-15T13:19:05.223Z,19.01
2022-10-15T13:24:11.891Z,19.05
2022-10-15T13:29:22.415Z,18.91
2022-10-15T13:34:33.109Z,18.81
2022-10-15T13:39:40.066Z,18.88
2022-10-15T13:44:42.771Z,18.81
2022-10-15T13:49:44.382Z,18.71
2022-10-15T13:54:47.042Z,18.54
2022-10-15T13:59:48.680Z,18.50
2022-10-15T14:04:50.228Z,18.47
2022-10-15T14:09:52.387Z,18.66
2022-10-15T14:14:53.948Z,18.57
2022-10-15T14:20:25.256Z,18.42
2022-10-15T14:25:24.882Z,18.40
2022-10-15T14:30:36.691Z,18.59
2022-10-15T14:35:38.778Z,18.47
2022-10-15T14:40:40.574Z,18.27
2022-10-15T14:45:50.905Z,18.35
2022-10-15T14:50:53.335Z,18.32
2022-10-15T14:56:02.105Z,18.34
2022-10-15T15:01:07.149Z,18.11
2022-10-15T15:06:09.767Z,17.88
2022-10-15T15:11:15.107Z,17.80
2022-10-15T15:16:18.144Z,17.62
2022-10-15T15:21:22.343Z,17.45
2022-10-15T15:26:24.589Z,17.47
2022-10-15T15:31:26.166Z,17.30
2022-10-15T15:36:27.709Z,17.12
2022-10-15T15:41:29.356Z,16.87
2022-10-15T15:46:31.251Z,16.79
2022-10-15T15:51:32.900Z,16.65
2022-10-15T15:56:34.978Z,16.58
2022-10-15T16:01:36.760Z,16.50
2022-10-15T16:06:39.578Z,16.36
2022-10-15T16:11:41.122Z,16.21
2022-10-15T16:16:42.952Z,16.19
2022-10-15T16:21:44.596Z,16.00
2022-10-15T16:26:46.307Z,15.74
2022-10-15T16:31:47.909Z,15.53
2022-10-15T16:36:49.608Z,15.33
2022-10-15T16:41:51.212Z,15.32
2022-10-15T16:46:52.778Z,15.32
2022-10-15T16:51:54.456Z,15.11
2022-10-15T16:56:56.044Z,15.35
2022-10-15T17:01:58.054Z,15.19
2022-10-15T17:06:59.592Z,14.91
2022-10-15T17:12:01.118Z,14.71
2022-10-15T17:17:02.790Z,14.59
2022-10-15T17:22:04.366Z,14.64
2022-10-15T17:27:06.024Z,14.53
2022-10-15T17:32:07.673Z,14.54
2022-10-15T17:37:09.585Z,14.47
2022-10-15T17:42:13.160Z,14.38
2022-10-15T17:47:14.753Z,14.11
2022-10-15T17:52:16.375Z,13.96
2022-10-15T17:57:17.921Z,14.17
2022-10-15T18:02:19.695Z,14.31
2022-10-15T18:07:23.127Z,14.16
2022-10-15T18:12:24.898Z,13.93
2022-10-15T18:17:26.753Z,13.93
2022-10-15T18:22:29.992Z,13.58
2022-10-15T18:27:31.609Z,13.29
2022-10-15T18:37:40.824Z,13.28
2022-10-15T18:42:46.296Z,13.32
2022-10-15T18:47:54.567Z,13.17
2022-10-15T18:52:56.077Z,12.99
2022-10-15T18:57:57.714Z,13.27
2022-10-15T19:02:59.828Z,13.07
2022-10-15T19:08:03.998Z,12.96
2022-10-15T19:13:05.580Z,12.80
2022-10-15T19:18:11.282Z,12.56
2022-10-15T19:23:13.098Z,12.70
2022-10-15T19:28:15.093Z,13.04
2022-10-15T19:33:18.585Z,13.03
2022-10-15T19:38:20.418Z,12.74
2022-10-15T19:43:23.756Z,12.52
2022-10-15T19:48:25.387Z,12.65
2022-10-15T19:53:26.946Z,12.65
2022-10-15T19:58:29.387Z,12.67
2022-10-15T20:03:31.087Z,12.68
2022-10-15T20:08:37.071Z,12.50
2022-10-15T20:13:38.812Z,12.57
2022-10-15T20:18:41.154Z,12.43
2022-10-15T20:23:44.334Z,12.46
2022-10-15T20:28:46.732Z,12.56
2022-10-15T20:33:48.421Z,12.50
2022-10-15T20:38:50.049Z,12.65
2022-10-15T20:43:54.896Z,12.48
2022-10-15T20:48:58.187Z,12.47
2022-10-15T20:53:59.924Z,12.48
2022-10-15T20:59:03.935Z,12.62
2022-10-15T21:04:06.290Z,12.79
2022-10-15T21:09:08.126Z,12.96
2022-10-15T21:14:11.714Z,12.79
2022-10-15T21:19:13.728Z,12.66
2022-10-15T21:24:15.225Z,12.61
2022-10-15T21:29:17.454Z,12.61
2022-10-15T21:34:23.134Z,12.77
2022-10-15T21:39:24.707Z,12.66
2022-10-15T21:44:26.287Z,12.68
2022-10-15T21:49:27.845Z,12.76
2022-10-15T21:54:29.566Z,12.75
2022-10-15T21:59:31.146Z,12.74
2022-10-15T22:04:34.807Z,12.87
2022-10-15T22:09:36.638Z,12.90
2022-10-15T22:14:38.261Z,13.06
2022-10-15T22:19:39.765Z,13.20
2022-10-15T22:24:41.447Z,13.16
2022-10-15T22:29:44.113Z,12.98
2022-10-15T22:34:45.713Z,12.78
2022-10-15T22:39:47.291Z,12.76
2022-10-15T22:44:48.819Z,12.60
2022-10-15T22:49:50.448Z,12.56
2022-10-15T22:54:52.081Z,12.52
2022-10-15T22:59:55.955Z,12.83
2022-10-15T23:05:00.283Z,12.68
2022-10-15T23:10:01.837Z,12.98
2022-10-15T23:15:04.339Z,12.65
2022-10-15T23:20:06.345Z,12.55
2022-10-15T23:25:08.266Z,12.73
2022-10-15T23:30:23.779Z,12.87
2022-10-15T23:35:26.135Z,12.83
2022-10-15T23:40:27.817Z,12.61
2022-10-15T23:45:29.289Z,12.54
2022-10-15T23:50:35.291Z,12.44
2022-10-15T23:55:40.725Z,12.39
